Time;durP1;ratioP1;P1;durP2;ratioP2;P2;SDS_P1;SDS_P2;PMS_P1;PMS_P2;Temp;Humidity;BMP_temperature;BMP_pressure;BME280_temperature;BME280_humidity;BME280_pressure;Samples;Min_cycle;Max_cycle;Signal;HPM_P1;HPM_P2
2023/02/24 00:01:37;;;;;;;3.20;1.38;;;19.40;50.70;;;;;;5052700;28;20215;-53
2023/02/24 00:04:12;;;;;;;1.75;1.20;;;19.40;50.70;;;;;;5053750;28;20191;-53
2023/02/24 00:06:44;;;;;;;2.15;1.33;;;19.40;50.70;;;;;;5054030;28;20196;-53
2023/02/24 00:09:16;;;;;;;3.15;1.30;;;19.40;50.60;;;;;;5054119;28;20195;-50
2023/02/24 00:11:48;;;;;;;2.15;1.30;;;19.50;50.70;;;;;;5053483;28;20223;-54
2023/02/24 00:14:19;;;;;;;3.15;1.30;;;19.50;50.60;;;;;;5053563;28;20195;-52
2023/02/24 00:16:50;;;;;;;2.15;1.35;;;19.50;50.60;;;;;;5053096;28;20203;-52
2023/02/24 00:19:24;;;;;;;2.20;1.08;;;19.50;50.60;;;;;;5032972;28;20207;-51
2023/02/24 00:21:55;;;;;;;3.00;1.38;;;19.50;50.60;;;;;;5033108;28;20220;-53
2023/02/24 00:24:26;;;;;;;1.75;1.08;;;19.50;50.60;;;;;;5035863;28;20275;-51
2023/02/24 00:26:58;;;;;;;1.92;1.05;;;19.60;50.60;;;;;;5043984;28;20283;-51
2023/02/24 00:29:29;;;;;;;1.98;1.10;;;19.50;50.60;;;;;;5053637;28;20195;-54
2023/02/24 00:32:05;;;;;;;2.25;1.38;;;19.60;50.60;;;;;;5053289;28;20230;-50
2023/02/24 00:34:38;;;;;;;2.13;1.17;;;19.60;50.60;;;;;;5053326;28;20199;-51
2023/02/24 00:37:09;;;;;;;1.58;1.10;;;19.60;50.60;;;;;;5052914;28;20195;-51
2023/02/24 00:39:40;;;;;;;1.38;1.08;;;19.60;50.50;;;;;;5053020;28;20196;-53
2023/02/24 00:42:11;;;;;;;2.42;1.20;;;19.60;50.50;;;;;;5053368;28;20389;-49
2023/02/24 00:44:42;;;;;;;2.03;1.10;;;19.60;50.60;;;;;;5053154;28;20651;-52
2023/02/24 00:47:15;;;;;;;1.83;1.00;;;19.60;50.60;;;;;;5037005;28;20691;-52
2023/02/24 00:49:48;;;;;;;1.92;1.15;;;19.70;50.60;;;;;;5032711;28;20207;-53
2023/02/24 00:52:20;;;;;;;1.55;1.10;;;19.70;50.60;;;;;;5032890;28;20231;-53
2023/02/24 00:54:52;;;;;;;2.33;1.40;;;19.70;50.60;;;;;;5033390;28;20203;-54
2023/02/24 00:57:22;;;;;;;2.78;1.15;;;19.70;50.60;;;;;;5047015;28;20199;-54
2023/02/24 00:59:53;;;;;;;1.77;1.15;;;19.70;50.50;;;;;;5035128;28;20321;-51
2023/02/24 01:02:24;;;;;;;1.50;1.15;;;19.70;50.50;;;;;;5032894;28;20224;-54
2023/02/24 01:04:56;;;;;;;1.50;1.10;;;19.70;50.50;;;;;;5033002;28;20195;-54
2023/02/24 01:07:28;;;;;;;2.35;1.17;;;19.70;50.50;;;;;;5050741;28;20206;-53
2023/02/24 01:09:59;;;;;;;1.40;0.95;;;19.70;50.50;;;;;;5040455;28;20196;-52
2023/02/24 01:12:39;;;;;;;1.80;1.17;;;19.70;50.50;;;;;;5033177;28;20666;-55
2023/02/24 01:15:12;;;;;;;1.27;1.08;;;19.80;50.60;;;;;;5032689;28;20200;-55
2023/02/24 01:17:43;;;;;;;0.75;0.75;;;19.80;50.60;;;;;;5032675;28;20196;-54
2023/02/24 01:20:19;;;;;;;1.70;0.90;;;19.80;50.60;;;;;;5032562;28;20221;-53
2023/02/24 01:22:52;;;;;;;0.95;0.80;;;19.80;50.60;;;;;;5032982;28;20713;-52
2023/02/24 01:25:23;;;;;;;1.10;0.80;;;19.80;50.60;;;;;;5031948;28;20200;-51
2023/02/24 01:27:53;;;;;;;1.17;0.90;;;19.80;50.60;;;;;;5050647;28;20203;-54
2023/02/24 01:30:24;;;;;;;2.63;1.10;;;19.90;50.60;;;;;;5052546;28;20201;-53
2023/02/24 01:32:56;;;;;;;1.10;0.90;;;19.90;50.60;;;;;;5052141;28;20227;-50
2023/02/24 01:35:28;;;;;;;1.10;1.00;;;19.90;50.50;;;;;;5052314;28;20195;-54
2023/02/24 01:38:04;;;;;;;1.67;1.00;;;19.90;50.50;;;;;;5052507;28;20201;-54
2023/02/24 01:40:35;;;;;;;1.85;0.90;;;19.90;50.50;;;;;;5052150;28;20195;-54
2023/02/24 01:43:07;;;;;;;1.10;1.00;;;20.00;50.50;;;;;;5037891;28;20226;-54
2023/02/24 01:45:39;;;;;;;1.10;0.90;;;20.00;50.50;;;;;;5031935;28;20218;-52
2023/02/24 01:48:11;;;;;;;0.88;0.85;;;20.00;50.50;;;;;;5032592;28;20196;-51
2023/02/24 01:50:44;;;;;;;1.13;0.98;;;20.00;50.50;;;;;;5031626;28;20204;-52
2023/02/24 01:53:15;;;;;;;1.20;0.88;;;20.00;50.50;;;;;;5048950;28;20224;-51
2023/02/24 01:55:48;;;;;;;1.02;0.90;;;20.00;50.50;;;;;;5051285;28;20202;-53
2023/02/24 01:58:23;;;;;;;1.42;0.90;;;20.10;50.60;;;;;;5051650;28;20195;-54
2023/02/24 02:00:54;;;;;;;1.38;0.90;;;20.10;50.60;;;;;;5051925;28;20249;-51
2023/02/24 02:03:31;;;;;;;1.10;0.70;;;20.10;50.60;;;;;;5051604;28;20261;-55
2023/02/24 02:06:07;;;;;;;1.48;0.80;;;20.10;50.60;;;;;;5051668;28;20198;-54
2023/02/24 02:08:40;;;;;;;1.27;0.88;;;20.20;50.60;;;;;;5051694;28;20195;-53
2023/02/24 02:11:12;;;;;;;2.10;1.10;;;20.20;50.50;;;;;;5051540;28;20207;-54
2023/02/24 02:13:49;;;;;;;1.08;0.80;;;20.20;50.50;;;;;;5051675;28;20287;-56
2023/02/24 02:16:42;;;;;;;1.67;1.00;;;20.30;50.50;;;;;;5051737;28;20195;-55
2023/02/24 02:19:44;;;;;;;1.10;0.93;;;20.30;50.50;;;;;;5051366;28;20239;-54
2023/02/24 02:22:52;;;;;;;1.98;0.80;;;20.30;50.50;;;;;;5038778;28;20306;-54
2023/02/24 02:25:36;;;;;;;1.17;0.90;;;20.30;50.40;;;;;;5016836;28;20196;-56
2023/02/24 02:28:38;;;;;;;1.50;0.93;;;20.30;50.30;;;;;;5031210;28;20704;-55
2023/02/24 02:31:38;;;;;;;0.88;0.73;;;20.40;50.40;;;;;;5031134;28;20200;-55
2023/02/24 02:34:23;;;;;;;1.42;0.77;;;20.40;50.40;;;;;;5030295;28;20203;-55
2023/02/24 02:37:04;;;;;;;1.42;0.73;;;20.40;50.40;;;;;;5031381;28;20195;-54
2023/02/24 02:39:49;;;;;;;1.50;0.95;;;20.50;50.40;;;;;;5030944;28;20196;-55
2023/02/24 02:42:29;;;;;;;1.27;0.80;;;20.50;50.40;;;;;;5030595;28;20220;-54
2023/02/24 02:45:08;;;;;;;1.73;0.70;;;20.60;50.50;;;;;;5031120;28;20192;-54
2023/02/24 02:47:43;;;;;;;1.60;0.80;;;20.60;50.40;;;;;;5031428;28;20262;-55
2023/02/24 02:50:21;;;;;;;1.83;0.80;;;20.60;50.30;;;;;;5030825;28;20318;-55
2023/02/24 02:52:57;;;;;;;0.82;0.73;;;20.60;50.30;;;;;;5031231;28;20223;-55
2023/02/24 02:55:33;;;;;;;1.55;0.80;;;20.70;50.30;;;;;;5031134;28;20203;-55
2023/02/24 02:58:07;;;;;;;0.70;0.70;;;20.70;50.20;;;;;;5047178;28;20312;-54
2023/02/24 03:00:41;;;;;;;1.13;1.00;;;20.70;50.20;;;;;;5044657;28;20199;-53
2023/02/24 03:03:16;;;;;;;1.73;0.82;;;20.70;50.10;;;;;;5031107;28;20612;-53
2023/02/24 03:05:54;;;;;;;1.25;0.70;;;20.80;50.20;;;;;;5031072;28;20542;-55
2023/02/24 03:08:33;;;;;;;1.05;0.75;;;20.80;50.10;;;;;;5042127;28;20678;-54
2023/02/24 03:11:06;;;;;;;1.00;0.80;;;20.80;50.10;;;;;;5051082;28;20199;-54
2023/02/24 03:13:42;;;;;;;1.13;0.57;;;20.90;50.00;;;;;;5050822;28;20348;-54
2023/02/24 03:16:16;;;;;;;0.50;0.50;;;20.90;50.00;;;;;;5050900;28;20198;-54
2023/02/24 03:18:55;;;;;;;1.30;0.77;;;21.00;50.00;;;;;;5034247;28;20188;-55
2023/02/24 03:21:33;;;;;;;1.25;0.88;;;21.00;50.00;;;;;;5031564;28;20463;-52
2023/02/24 03:24:06;;;;;;;1.23;0.80;;;21.10;50.00;;;;;;5030981;28;20200;-51
2023/02/24 03:26:43;;;;;;;1.17;0.70;;;21.10;49.90;;;;;;5038339;28;20235;-52
2023/02/24 03:29:22;;;;;;;1.92;0.85;;;21.20;49.80;;;;;;5050504;28;20200;-53
2023/02/24 03:31:58;;;;;;;3.42;0.77;;;21.20;49.80;;;;;;5032363;28;20266;-52
2023/02/24 03:34:37;;;;;;;0.60;0.60;;;21.20;49.70;;;;;;5030563;28;20195;-53
2023/02/24 03:37:09;;;;;;;0.73;0.60;;;21.20;49.70;;;;;;5030224;28;20628;-52
2023/02/24 03:39:40;;;;;;;0.65;0.52;;;21.20;49.60;;;;;;5031075;28;20204;-53
2023/02/24 03:42:14;;;;;;;0.70;0.70;;;21.20;49.60;;;;;;5030475;28;20239;-51
2023/02/24 03:44:45;;;;;;;1.10;0.60;;;21.30;49.60;;;;;;5030792;28;20279;-50
2023/02/24 03:47:16;;;;;;;1.02;0.70;;;21.30;49.50;;;;;;5037395;28;20196;-50
2023/02/24 03:49:46;;;;;;;1.60;0.60;;;21.30;49.50;;;;;;5034051;28;20208;-54
2023/02/24 03:52:28;;;;;;;1.05;0.75;;;21.30;49.40;;;;;;5034098;28;20234;-54
2023/02/24 03:55:23;;;;;;;1.25;0.85;;;21.40;49.50;;;;;;5034278;28;20211;-53
2023/02/24 03:58:05;;;;;;;0.75;0.60;;;21.40;49.50;;;;;;5041064;28;20207;-51
2023/02/24 04:00:43;;;;;;;0.70;0.55;;;21.40;49.60;;;;;;5035570;28;20188;-54
2023/02/24 04:03:24;;;;;;;0.70;0.70;;;21.40;49.40;;;;;;5034281;28;20247;-51
2023/02/24 04:06:03;;;;;;;2.03;0.68;;;21.50;49.40;;;;;;5033541;28;20292;-53
2023/02/24 04:08:44;;;;;;;1.85;0.70;;;21.50;49.40;;;;;;5033944;28;20192;-51
2023/02/24 04:11:22;;;;;;;1.50;0.90;;;21.50;49.40;;;;;;5043026;28;20387;-55
2023/02/24 04:14:00;;;;;;;0.98;0.60;;;21.50;49.30;;;;;;5052855;28;20314;-54
2023/02/24 04:16:35;;;;;;;0.90;0.60;;;21.50;49.30;;;;;;5037694;28;20284;-55
2023/02/24 04:19:12;;;;;;;0.93;0.57;;;21.60;49.30;;;;;;5034065;28;20237;-51
2023/02/24 04:21:47;;;;;;;1.15;0.70;;;21.60;49.20;;;;;;5033757;28;20226;-53
2023/02/24 04:24:22;;;;;;;1.67;0.75;;;21.60;49.20;;;;;;5033829;28;20230;-54
2023/02/24 04:26:57;;;;;;;0.73;0.65;;;21.60;49.10;;;;;;5043975;28;20218;-53
2023/02/24 04:29:34;;;;;;;1.67;0.73;;;21.60;49.10;;;;;;5053888;28;20242;-52
2023/02/24 04:32:09;;;;;;;0.98;0.70;;;21.70;49.10;;;;;;5053458;28;20691;-50
2023/02/24 04:34:41;;;;;;;1.15;0.63;;;21.70;49.10;;;;;;5053578;28;20655;-54
2023/02/24 04:37:12;;;;;;;2.08;0.70;;;21.70;49.10;;;;;;5053497;28;20199;-50
2023/02/24 04:39:45;;;;;;;1.45;0.70;;;21.70;49.10;;;;;;5053459;28;20206;-50
2023/02/24 04:42:15;;;;;;;1.13;0.73;;;21.70;49.00;;;;;;5052696;28;20219;-50
2023/02/24 04:44:46;;;;;;;1.02;0.50;;;21.80;49.10;;;;;;5052940;28;20202;-52
2023/02/24 04:47:17;;;;;;;0.60;0.60;;;21.80;49.10;;;;;;5054118;28;20196;-54
2023/02/24 04:49:48;;;;;;;1.25;0.70;;;21.70;49.10;;;;;;5053341;28;20222;-50
2023/02/24 04:52:19;;;;;;;0.82;0.60;;;21.80;49.10;;;;;;5052886;28;20211;-49
2023/02/24 04:54:52;;;;;;;0.90;0.77;;;21.80;49.10;;;;;;5053014;28;20203;-50
2023/02/24 04:57:23;;;;;;;0.68;0.60;;;21.80;49.00;;;;;;5052201;28;20200;-52
2023/02/24 04:59:56;;;;;;;0.90;0.60;;;21.80;48.90;;;;;;5053115;28;20675;-53
2023/02/24 05:02:27;;;;;;;1.35;0.77;;;21.80;48.90;;;;;;5052307;28;20259;-52
2023/02/24 05:04:58;;;;;;;1.05;0.50;;;21.80;48.90;;;;;;5052354;28;20226;-54
2023/02/24 05:07:53;;;;;;;1.13;0.60;;;21.80;48.80;;;;;;5052967;28;20647;-55
2023/02/24 05:10:26;;;;;;;0.57;0.57;;;21.80;48.80;;;;;;5053104;28;20199;-50
2023/02/24 05:12:59;;;;;;;1.70;0.63;;;21.80;48.80;;;;;;5052531;28;20262;-54
2023/02/24 05:15:31;;;;;;;1.05;0.50;;;21.80;48.90;;;;;;5052365;28;20206;-54
2023/02/24 05:18:06;;;;;;;0.93;0.73;;;21.80;48.90;;;;;;5052871;28;20282;-53
2023/02/24 05:23:30;;;;;;;0.70;0.60;;;21.90;49.00;;;;;;5052678;28;20218;-52
2023/02/24 05:26:07;;;;;;;1.38;0.80;;;21.90;48.90;;;;;;5052363;28;20198;-54
2023/02/24 05:28:37;;;;;;;1.00;0.60;;;21.90;48.90;;;;;;5049815;28;20187;-53
2023/02/24 05:31:09;;;;;;;0.80;0.60;;;21.90;48.90;;;;;;5052514;28;20257;-53
2023/02/24 05:33:41;;;;;;;1.15;0.50;;;21.90;48.80;;;;;;5051947;28;20231;-53
2023/02/24 05:36:14;;;;;;;1.60;0.65;;;21.90;49.40;;;;;;5052313;28;20633;-53
2023/02/24 05:38:45;;;;;;;1.13;0.63;;;21.90;48.70;;;;;;5038277;28;20188;-52
2023/02/24 05:41:19;;;;;;;0.93;0.60;;;21.90;48.70;;;;;;5032311;28;20222;-55
2023/02/24 05:43:53;;;;;;;0.80;0.57;;;21.90;48.70;;;;;;5032492;28;20569;-54
2023/02/24 05:46:27;;;;;;;0.90;0.60;;;21.90;48.70;;;;;;5033074;28;20283;-51
2023/02/24 05:48:58;;;;;;;1.05;0.50;;;21.90;48.60;;;;;;5032079;28;20196;-54
2023/02/24 05:51:34;;;;;;;2.15;0.88;;;21.90;48.70;;;;;;5034290;28;20243;-53
2023/02/24 05:54:05;;;;;;;0.93;0.60;;;21.90;48.70;;;;;;5051927;28;20248;-56
2023/02/24 05:56:39;;;;;;;1.00;0.57;;;21.90;48.70;;;;;;5051567;28;20195;-52
2023/02/24 05:59:12;;;;;;;0.40;0.40;;;21.90;48.70;;;;;;5051359;28;20230;-51
2023/02/24 06:01:45;;;;;;;0.98;0.60;;;21.90;48.70;;;;;;5051436;28;20215;-50
2023/02/24 06:04:38;;;;;;;0.80;0.50;;;21.90;48.70;;;;;;5051366;28;20286;-52
2023/02/24 06:07:13;;;;;;;1.00;0.70;;;21.90;48.60;;;;;;5051851;28;20249;-51
2023/02/24 06:09:44;;;;;;;0.60;0.50;;;21.90;48.60;;;;;;5036381;28;20203;-53
2023/02/24 06:12:17;;;;;;;0.60;0.57;;;21.90;48.60;;;;;;5031754;28;20303;-52
2023/02/24 06:14:47;;;;;;;0.85;0.70;;;21.90;48.60;;;;;;5031863;28;20228;-50
2023/02/24 06:17:18;;;;;;;0.65;0.60;;;21.90;49.20;;;;;;5031768;28;20533;-54
2023/02/24 06:19:51;;;;;;;0.88;0.52;;;21.90;48.60;;;;;;5031670;28;20192;-50
2023/02/24 06:22:23;;;;;;;0.95;0.60;;;21.90;48.60;;;;;;5031355;28;20230;-53
2023/02/24 06:24:55;;;;;;;1.02;0.52;;;21.90;48.60;;;;;;5031298;28;20291;-52
2023/02/24 06:27:28;;;;;;;0.60;0.60;;;21.90;48.60;;;;;;5046452;28;20290;-51
2023/02/24 06:29:58;;;;;;;0.70;0.60;;;21.90;48.60;;;;;;5051599;28;20253;-53
2023/02/24 06:32:29;;;;;;;2.08;0.65;;;21.90;48.60;;;;;;5051397;28;20272;-52
2023/02/24 06:35:00;;;;;;;0.40;0.40;;;21.90;48.50;;;;;;5051302;28;20231;-54
2023/02/24 06:37:31;;;;;;;0.98;0.60;;;21.90;48.50;;;;;;5051214;28;20199;-53
2023/02/24 06:40:04;;;;;;;1.08;0.60;;;21.90;48.50;;;;;;5051549;28;20199;-49
2023/02/24 06:42:38;;;;;;;0.82;0.60;;;21.90;48.40;;;;;;5051330;28;20219;-53
2023/02/24 06:45:10;;;;;;;1.05;0.63;;;21.90;48.40;;;;;;5051472;28;20199;-50
2023/02/24 06:47:42;;;;;;;1.42;0.63;;;21.90;48.30;;;;;;5052024;28;20191;-53
2023/02/24 06:50:13;;;;;;;1.02;0.60;;;21.90;48.30;;;;;;5050893;28;20298;-50
2023/02/24 06:52:44;;;;;;;0.88;0.60;;;21.90;48.30;;;;;;5051251;28;20588;-50
2023/02/24 06:55:26;;;;;;;0.90;0.60;;;21.90;48.30;;;;;;5051526;28;20556;-49
2023/02/24 06:58:03;;;;;;;0.80;0.60;;;21.90;48.40;;;;;;5051121;28;20234;-51
2023/02/24 07:00:38;;;;;;;1.25;0.60;;;21.90;48.40;;;;;;5051768;28;20610;-50
2023/02/24 07:03:17;;;;;;;1.05;0.60;;;21.90;48.40;;;;;;5051331;28;20257;-50
2023/02/24 07:05:53;;;;;;;1.17;0.50;;;21.90;48.40;;;;;;5050882;28;20218;-51
2023/02/24 07:08:26;;;;;;;0.68;0.60;;;21.80;48.40;;;;;;5050719;28;20244;-50
2023/02/24 07:10:58;;;;;;;1.20;0.77;;;21.80;48.40;;;;;;5050573;28;20384;-52
2023/02/24 07:13:31;;;;;;;0.75;0.60;;;21.80;48.30;;;;;;5050671;28;20432;-52
2023/02/24 07:16:05;;;;;;;0.70;0.65;;;21.80;48.30;;;;;;5050867;28;20199;-54
2023/02/24 07:18:39;;;;;;;0.77;0.50;;;21.80;48.30;;;;;;5050774;28;20199;-50
2023/02/24 07:21:10;;;;;;;1.35;0.75;;;21.80;48.30;;;;;;5052718;28;20202;-53
2023/02/24 07:23:41;;;;;;;0.77;0.60;;;21.80;48.20;;;;;;5055252;28;20219;-51
2023/02/24 07:26:13;;;;;;;0.68;0.60;;;21.80;48.20;;;;;;5054853;28;20203;-52
2023/02/24 07:28:47;;;;;;;0.85;0.60;;;21.80;48.20;;;;;;5054319;28;20563;-52
2023/02/24 07:31:19;;;;;;;1.00;0.60;;;21.80;48.20;;;;;;5054351;28;20564;-52
2023/02/24 07:33:51;;;;;;;0.80;0.50;;;21.70;48.20;;;;;;5054208;28;20234;-52
2023/02/24 07:36:22;;;;;;;1.35;0.70;;;21.70;48.90;;;;;;5052181;28;20287;-50
2023/02/24 07:38:53;;;;;;;0.70;0.60;;;21.70;48.30;;;;;;5042558;28;20194;-52
2023/02/24 07:41:26;;;;;;;0.93;0.60;;;21.70;48.30;;;;;;5034446;28;20641;-52
2023/02/24 07:44:02;;;;;;;0.57;0.57;;;21.70;48.30;;;;;;5034384;28;20312;-52
2023/02/24 07:46:33;;;;;;;1.00;0.60;;;21.70;48.30;;;;;;5035031;28;20199;-55
2023/02/24 07:49:03;;;;;;;1.55;0.80;;;21.70;48.30;;;;;;5037016;28;20250;-50
2023/02/24 07:51:34;;;;;;;1.25;0.70;;;21.70;48.30;;;;;;5034336;28;20208;-54
2023/02/24 07:54:07;;;;;;;0.65;0.60;;;21.70;48.30;;;;;;5034059;28;20224;-51
2023/02/24 07:56:44;;;;;;;1.30;0.60;;;21.60;48.20;;;;;;5042064;28;20208;-52
2023/02/24 07:59:18;;;;;;;1.88;0.70;;;21.60;48.20;;;;;;5053977;28;20191;-54
2023/02/24 08:01:54;;;;;;;0.85;0.57;;;21.60;48.30;;;;;;5053806;28;20734;-53
2023/02/24 08:04:26;;;;;;;0.90;0.50;;;21.60;48.30;;;;;;5053969;28;20613;-50
2023/02/24 08:07:01;;;;;;;0.70;0.60;;;21.60;48.30;;;;;;5054079;28;20320;-52
2023/02/24 08:10:08;;;;;;;0.52;0.52;;;21.60;48.30;;;;;;5054350;28;20199;-52
2023/02/24 08:12:41;;;;;;;0.80;0.70;;;21.60;48.30;;;;;;5054048;28;20211;-49
2023/02/24 08:15:23;;;;;;;1.20;0.63;;;21.60;48.30;;;;;;5038780;28;20307;-49
2023/02/24 08:17:58;;;;;;;1.17;0.70;;;21.60;48.30;;;;;;5033532;28;20288;-50
2023/02/24 08:20:34;;;;;;;0.80;0.70;;;21.50;48.30;;;;;;5033295;28;20198;-49
2023/02/24 08:23:09;;;;;;;0.55;0.55;;;21.60;48.40;;;;;;5033769;28;20219;-49
2023/02/24 08:25:43;;;;;;;3.28;0.60;;;21.50;48.30;;;;;;5033833;28;20334;-50
2023/02/24 08:28:14;;;;;;;0.93;0.60;;;21.50;48.40;;;;;;5053598;28;20253;-49
2023/02/24 08:30:47;;;;;;;1.98;0.70;;;21.50;48.30;;;;;;5053446;28;20206;-51
2023/02/24 08:33:22;;;;;;;0.90;0.70;;;21.50;48.30;;;;;;5052197;28;20593;-52
2023/02/24 08:35:59;;;;;;;0.75;0.73;;;21.50;48.30;;;;;;5053157;28;20599;-51
2023/02/24 08:38:38;;;;;;;1.13;0.70;;;21.50;48.60;;;;;;5053390;28;20206;-51
2023/02/24 08:41:16;;;;;;;0.40;0.40;;;21.40;48.30;;;;;;5053412;28;20227;-51
2023/02/24 08:43:47;;;;;;;0.55;0.45;;;21.40;48.40;;;;;;5053150;28;20282;-51
2023/02/24 08:46:31;;;;;;;0.60;0.60;;;21.40;48.40;;;;;;5052783;28;20797;-54
2023/02/24 08:49:09;;;;;;;0.50;0.50;;;21.40;48.40;;;;;;5052790;28;20203;-52
2023/02/24 08:51:43;;;;;;;1.42;0.50;;;21.40;48.40;;;;;;5052505;28;20227;-51
2023/02/24 08:54:16;;;;;;;0.57;0.52;;;21.40;48.40;;;;;;5052472;28;20223;-51
2023/02/24 08:56:54;;;;;;;0.95;0.60;;;21.40;48.40;;;;;;5052846;28;20283;-49
2023/02/24 09:02:36;;;;;;;1.08;0.70;;;21.40;48.40;;;;;;5046347;28;20211;-52
2023/02/24 09:05:10;;;;;;;0.75;0.60;;;21.30;48.40;;;;;;5052853;28;20283;-51
2023/02/24 09:07:42;;;;;;;0.93;0.73;;;21.40;48.40;;;;;;5053025;28;20227;-53
2023/02/24 09:10:18;;;;;;;0.60;0.50;;;21.30;48.40;;;;;;5052957;28;20257;-52
2023/02/24 09:12:52;;;;;;;0.80;0.50;;;21.30;48.50;;;;;;5052849;28;20310;-53
2023/02/24 09:15:24;;;;;;;0.65;0.65;;;21.30;48.40;;;;;;5052659;28;20310;-54
2023/02/24 09:18:06;;;;;;;1.55;0.60;;;21.30;48.40;;;;;;5052413;28;20206;-50
2023/02/24 09:23:28;;;;;;;1.75;0.73;;;21.20;48.40;;;;;;5052622;28;20214;-50
2023/02/24 09:26:09;;;;;;;1.30;0.65;;;21.20;48.50;;;;;;5052119;28;20199;-50
2023/02/24 09:28:47;;;;;;;0.80;0.60;;;21.20;48.50;;;;;;5049438;28;20196;-50
2023/02/24 09:31:18;;;;;;;0.80;0.80;;;21.20;48.50;;;;;;5052558;28;20214;-52
2023/02/24 09:33:51;;;;;;;0.70;0.60;;;21.20;48.60;;;;;;5052198;28;20200;-53
2023/02/24 09:36:28;;;;;;;0.77;0.60;;;21.20;48.60;;;;;;5052394;28;20278;-52
2023/02/24 09:39:13;;;;;;;0.55;0.55;;;21.20;48.60;;;;;;5050582;28;20197;-51
2023/02/24 09:41:55;;;;;;;0.70;0.60;;;21.20;48.60;;;;;;5032687;28;20619;-51
2023/02/24 09:44:34;;;;;;;0.68;0.57;;;21.20;48.60;;;;;;5031867;28;20200;-51
2023/02/24 09:47:14;;;;;;;0.57;0.57;;;21.20;48.60;;;;;;5034916;28;20270;-51
2023/02/24 09:49:57;;;;;;;0.95;0.50;;;21.10;48.50;;;;;;5031570;28;20208;-51
2023/02/24 09:52:38;;;;;;;2.08;0.45;;;21.10;48.60;;;;;;5032058;28;20719;-53
2023/02/24 09:55:25;;;;;;;0.88;0.57;;;21.20;48.60;;;;;;5032277;28;20234;-50
2023/02/24 10:00:58;;;;;;;0.60;0.60;;;21.10;48.50;;;;;;5051779;28;20195;-50
2023/02/24 10:03:46;;;;;;;0.63;0.40;;;21.10;48.60;;;;;;5051959;28;20586;-51
2023/02/24 10:06:22;;;;;;;0.63;0.50;;;21.10;48.60;;;;;;5051687;28;20203;-54
2023/02/24 10:09:10;;;;;;;1.17;0.73;;;21.10;48.60;;;;;;5051998;28;20195;-52
2023/02/24 10:11:52;;;;;;;0.73;0.60;;;21.10;48.60;;;;;;5049800;28;20294;-49
2023/02/24 10:14:29;;;;;;;0.57;0.50;;;21.10;48.70;;;;;;5031735;28;20282;-49
2023/02/24 10:19:43;;;;;;;0.47;0.47;;;21.00;48.70;;;;;;5014624;28;20755;-52
2023/02/24 10:22:28;;;;;;;0.93;0.60;;;21.00;48.70;;;;;;5031869;28;20274;-52
2023/02/24 10:25:12;;;;;;;1.05;0.55;;;21.00;48.70;;;;;;5031781;28;20293;-50
2023/02/24 10:27:56;;;;;;;0.77;0.68;;;21.00;48.70;;;;;;5048567;28;20547;-54
2023/02/24 10:30:46;;;;;;;1.20;0.63;;;21.00;48.70;;;;;;5051186;28;20218;-56
2023/02/24 10:33:26;;;;;;;1.50;0.93;;;21.00;48.90;;;;;;5051234;28;20680;-57
2023/02/24 10:36:10;;;;;;;3.67;0.80;;;21.00;49.40;;;;;;5051403;28;20318;-51
2023/02/24 10:38:44;;;;;;;1.90;0.68;;;21.00;49.80;;;;;;5051041;28;20586;-52
2023/02/24 10:41:16;;;;;;;7.55;0.80;;;21.00;49.70;;;;;;5050929;28;20202;-50
2023/02/24 10:43:57;;;;;;;1.20;0.80;;;21.00;49.60;;;;;;5051146;28;20195;-50
2023/02/24 10:46:32;;;;;;;1.58;0.80;;;21.00;49.50;;;;;;5051563;28;20252;-53
2023/02/24 10:49:08;;;;;;;1.10;0.70;;;21.00;49.50;;;;;;5051047;28;20285;-51
2023/02/24 10:51:40;;;;;;;1.13;0.80;;;21.00;49.50;;;;;;5051351;28;20316;-52
2023/02/24 10:57:17;;;;;;;3.38;0.98;;;21.00;49.50;;;;;;5054980;28;20210;-49
2023/02/24 11:03:09;;;;;;;1.20;0.90;;;21.00;49.50;;;;;;4993669;28;20213;-50
2023/02/24 11:05:55;;;;;;;2.85;1.30;;;20.90;49.50;;;;;;5046585;28;20199;-53
2023/02/24 11:08:35;;;;;;;2.85;1.20;;;20.90;49.60;;;;;;5054107;28;20191;-53
2023/02/24 11:11:24;;;;;;;1.63;1.02;;;20.90;49.60;;;;;;5055402;28;20199;-55
2023/02/24 11:19:49;;;;;;;2.15;1.13;;;20.90;49.70;;;;;;5054440;28;20194;-55
2023/02/24 11:22:24;;;;;;;3.40;1.30;;;20.90;49.70;;;;;;5055077;28;20273;-53
2023/02/24 11:24:55;;;;;;;1.75;1.20;;;20.90;49.80;;;;;;5054838;28;20200;-52
2023/02/24 11:27:29;;;;;;;1.65;1.30;;;20.90;49.90;;;;;;5054689;28;20265;-53
2023/02/24 11:30:17;;;;;;;2.85;1.67;;;20.90;49.90;;;;;;5052811;28;20188;-54
2023/02/24 11:33:12;;;;;;;3.78;1.38;;;20.80;49.90;;;;;;5036749;28;20224;-55
2023/02/24 11:35:50;;;;;;;2.55;1.50;;;20.80;49.90;;;;;;5021588;28;20223;-50
2023/02/24 11:38:31;;;;;;;2.90;1.50;;;20.80;50.00;;;;;;5034361;28;20250;-53
2023/02/24 11:41:08;;;;;;;2.03;1.33;;;20.80;50.00;;;;;;5034503;28;20200;-51
2023/02/24 11:43:45;;;;;;;3.17;1.70;;;20.80;50.10;;;;;;5033995;28;20216;-49
2023/02/24 11:46:19;;;;;;;2.63;1.50;;;20.80;50.10;;;;;;5034064;28;20200;-53
2023/02/24 11:48:55;;;;;;;3.05;1.75;;;20.80;50.10;;;;;;5034405;28;20193;-51
2023/02/24 11:51:28;;;;;;;3.28;1.80;;;20.80;50.20;;;;;;5033933;28;20203;-49
2023/02/24 11:54:03;;;;;;;1.98;1.48;;;20.80;50.20;;;;;;5039464;28;20225;-51
2023/02/24 11:56:41;;;;;;;4.22;1.70;;;20.70;50.10;;;;;;5053859;28;20239;-50
2023/02/24 11:59:17;;;;;;;2.88;1.50;;;20.70;50.10;;;;;;5054630;28;20682;-53
2023/02/24 12:01:53;;;;;;;2.50;1.50;;;20.70;50.10;;;;;;5054337;28;20226;-52
2023/02/24 12:04:30;;;;;;;1.80;1.42;;;20.70;50.10;;;;;;5054088;28;20195;-53
2023/02/24 12:07:06;;;;;;;2.25;1.40;;;20.70;50.10;;;;;;5053663;28;20257;-52
2023/02/24 12:09:43;;;;;;;2.47;1.45;;;20.70;50.10;;;;;;5050394;28;20282;-50
2023/02/24 12:12:19;;;;;;;2.25;1.20;;;20.70;50.10;;;;;;5033345;28;20220;-51
2023/02/24 12:14:54;;;;;;;2.78;1.30;;;20.70;50.10;;;;;;5033335;28;20219;-52
2023/02/24 12:17:32;;;;;;;3.90;1.63;;;20.70;50.20;;;;;;5033625;28;20257;-52
2023/02/24 12:20:08;;;;;;;2.50;1.38;;;20.60;50.10;;;;;;5033731;28;20226;-53
2023/02/24 12:22:47;;;;;;;3.60;1.60;;;20.60;50.10;;;;;;5033862;28;20259;-53
2023/02/24 12:25:18;;;;;;;1.70;1.10;;;20.60;50.10;;;;;;5033962;28;20203;-54
2023/02/24 12:28:02;;;;;;;3.00;1.70;;;20.60;50.10;;;;;;5051617;28;20203;-54
2023/02/24 12:30:49;;;;;;;3.00;1.65;;;20.60;50.10;;;;;;5053697;28;20233;-54
2023/02/24 12:33:34;;;;;;;1.95;1.30;;;20.60;50.10;;;;;;5053562;28;20277;-50
2023/02/24 12:36:13;;;;;;;3.17;1.60;;;20.60;50.10;;;;;;5053512;28;20231;-50
2023/02/24 12:38:57;;;;;;;1.80;1.30;;;20.60;50.10;;;;;;5053680;28;20205;-52
2023/02/24 12:41:42;;;;;;;2.65;1.52;;;20.50;50.20;;;;;;5054188;28;20651;-51
2023/02/24 12:44:24;;;;;;;1.75;1.40;;;20.50;50.00;;;;;;5053399;28;20245;-49
2023/02/24 12:47:02;;;;;;;1.95;1.40;;;20.50;50.00;;;;;;5053778;28;20191;-53
2023/02/24 12:49:47;;;;;;;1.45;1.15;;;20.50;50.00;;;;;;5052495;28;20261;-50
2023/02/24 12:52:25;;;;;;;3.67;1.50;;;20.50;50.00;;;;;;5051704;28;20211;-53
2023/02/24 12:55:02;;;;;;;1.70;1.25;;;20.40;50.00;;;;;;5051811;28;20773;-51
2023/02/24 12:57:43;;;;;;;2.38;1.48;;;20.50;50.10;;;;;;5051743;28;20199;-51
2023/02/24 13:00:18;;;;;;;2.20;1.40;;;20.50;50.10;;;;;;5051975;28;20195;-51
2023/02/24 13:03:01;;;;;;;1.45;1.20;;;20.40;50.10;;;;;;5051979;28;20786;-53
2023/02/24 13:05:37;;;;;;;2.10;1.20;;;20.40;50.00;;;;;;5051847;28;20286;-51
2023/02/24 13:08:22;;;;;;;1.52;1.10;;;20.40;50.10;;;;;;5051791;28;20199;-52
2023/02/24 13:11:00;;;;;;;2.53;1.50;;;20.30;50.00;;;;;;5051720;28;20203;-50
2023/02/24 13:13:38;;;;;;;1.45;1.15;;;20.30;50.00;;;;;;5051820;28;20475;-50
2023/02/24 13:16:12;;;;;;;1.33;1.10;;;20.30;50.00;;;;;;5052067;28;20285;-53
2023/02/24 13:18:44;;;;;;;1.98;1.30;;;20.30;50.00;;;;;;5051200;28;20206;-52
2023/02/24 13:21:23;;;;;;;1.55;1.00;;;20.30;50.00;;;;;;5051972;28;20203;-51
2023/02/24 13:23:59;;;;;;;1.85;1.27;;;20.30;50.00;;;;;;5051475;28;20253;-50
2023/02/24 13:26:31;;;;;;;2.28;1.10;;;20.30;50.10;;;;;;5051163;28;20261;-52
2023/02/24 13:29:05;;;;;;;1.88;1.15;;;20.30;50.10;;;;;;5051218;28;20285;-50
2023/02/24 13:31:46;;;;;;;1.48;1.30;;;20.30;50.00;;;;;;5048324;28;20203;-50
2023/02/24 13:34:34;;;;;;;2.38;1.33;;;20.30;50.10;;;;;;5051711;28;20535;-52
2023/02/24 13:37:05;;;;;;;1.83;0.95;;;20.20;50.00;;;;;;5051563;28;20226;-50
2023/02/24 13:39:38;;;;;;;1.73;1.20;;;20.20;50.00;;;;;;5039742;28;20204;-53
2023/02/24 13:42:23;;;;;;;2.00;1.17;;;20.20;50.00;;;;;;5031383;28;20216;-51
2023/02/24 13:45:03;;;;;;;1.30;1.00;;;20.20;50.00;;;;;;5031392;28;20261;-50
2023/02/24 13:47:49;;;;;;;2.03;1.08;;;20.20;50.00;;;;;;5035856;28;20191;-52
2023/02/24 13:50:29;;;;;;;2.40;0.90;;;20.20;50.00;;;;;;4942955;28;3109046;-53
2023/02/24 13:53:26;;;;;;;1.80;1.17;;;20.10;50.00;;;;;;5051802;28;20276;-50
2023/02/24 13:56:15;;;;;;;1.63;1.25;;;20.10;50.00;;;;;;5051890;28;20592;-49
2023/02/24 13:59:13;;;;;;;1.63;1.10;;;20.10;50.00;;;;;;5051989;28;20203;-51
2023/02/24 14:01:52;;;;;;;1.00;0.90;;;20.10;50.00;;;;;;5044458;28;20239;-50